createdAt,value
2018-09-16T00:00:34.265Z,23.43
2018-09-16T00:03:00.239Z,23.42
2018-09-16T00:05:26.225Z,23.43
2018-09-16T00:07:52.208Z,23.43
2018-09-16T00:10:18.195Z,23.42
2018-09-16T00:12:44.182Z,23.42
2018-09-16T00:15:10.167Z,23.42
2018-09-16T00:17:36.161Z,23.42
2018-09-16T00:20:02.152Z,23.42
2018-09-16T00:22:28.136Z,23.42
2018-09-16T00:24:54.138Z,23.42
2018-09-16T00:27:20.118Z,23.42
2018-09-16T00:29:46.108Z,23.42
2018-09-16T00:32:12.101Z,23.42
2018-09-16T00:34:38.078Z,23.41
2018-09-16T00:37:04.072Z,23.42
2018-09-16T00:39:30.055Z,23.42
2018-09-16T00:41:56.049Z,23.41
2018-09-16T00:44:22.033Z,23.42
2018-09-16T00:46:48.026Z,23.42
2018-09-16T00:49:14.003Z,23.41
2018-09-16T00:51:40.008Z,23.41
2018-09-16T00:54:05.982Z,23.42
2018-09-16T00:56:31.957Z,23.41
2018-09-16T00:58:57.940Z,23.41
2018-09-16T01:01:23.925Z,23.40
2018-09-16T01:03:49.909Z,23.40
2018-09-16T01:06:15.871Z,23.40
2018-09-16T01:08:41.863Z,23.41
2018-09-16T01:11:07.842Z,23.40
2018-09-16T01:13:33.832Z,23.40
2018-09-16T01:15:59.817Z,23.40
2018-09-16T01:18:25.800Z,23.40
2018-09-16T01:20:51.814Z,23.39
2018-09-16T01:23:17.770Z,23.39
2018-09-16T01:25:43.746Z,23.39
2018-09-16T01:28:09.736Z,23.40
2018-09-16T01:30:35.781Z,23.40
2018-09-16T01:33:01.761Z,23.40
2018-09-16T01:35:27.743Z,23.40
2018-09-16T01:37:53.724Z,23.39
2018-09-16T01:40:19.742Z,23.39
2018-09-16T01:42:45.717Z,23.39
2018-09-16T01:45:11.693Z,23.39
2018-09-16T01:47:37.683Z,23.39
2018-09-16T01:50:03.644Z,23.39
2018-09-16T01:52:29.656Z,23.38
2018-09-16T01:54:55.628Z,23.39
2018-09-16T01:57:21.620Z,23.38
2018-09-16T01:59:47.603Z,23.38
2018-09-16T02:02:13.589Z,23.38
2018-09-16T02:04:39.570Z,23.39
2018-09-16T02:07:05.558Z,23.38
2018-09-16T02:09:31.540Z,23.38
2018-09-16T02:11:57.514Z,23.38
2018-09-16T02:14:23.494Z,23.38
2018-09-16T02:16:49.471Z,23.39
2018-09-16T02:19:15.444Z,23.38
2018-09-16T02:21:41.558Z,23.38
2018-09-16T02:24:07.536Z,23.38
2018-09-16T02:26:33.525Z,23.37
2018-09-16T02:28:59.505Z,23.38
2018-09-16T02:31:25.491Z,23.38
2018-09-16T02:33:51.476Z,23.37
2018-09-16T02:36:17.457Z,23.38
2018-09-16T02:38:43.444Z,23.37
2018-09-16T02:41:09.421Z,23.37
2018-09-16T02:43:35.488Z,23.37
2018-09-16T02:46:01.381Z,23.37
2018-09-16T02:48:27.398Z,23.37
2018-09-16T02:50:53.380Z,23.37
2018-09-16T02:53:19.467Z,23.37
2018-09-16T02:55:45.445Z,23.36
2018-09-16T02:58:11.427Z,23.37
2018-09-16T03:00:37.425Z,23.37
2018-09-16T03:03:03.384Z,23.37
2018-09-16T03:05:29.372Z,23.36
2018-09-16T03:07:55.356Z,23.36
2018-09-16T03:10:21.384Z,23.36
2018-09-16T03:12:47.374Z,23.36
2018-09-16T03:15:13.363Z,23.36
2018-09-16T03:17:39.383Z,23.36
2018-09-16T03:20:05.368Z,23.36
2018-09-16T03:22:31.345Z,23.36
2018-09-16T03:24:57.328Z,23.36
2018-09-16T03:27:23.314Z,23.36
2018-09-16T03:29:49.295Z,23.35
2018-09-16T03:32:15.280Z,23.36
2018-09-16T03:34:41.255Z,23.36
2018-09-16T03:37:07.242Z,23.35
2018-09-16T03:39:33.232Z,23.35
2018-09-16T03:41:59.208Z,23.35
2018-09-16T03:44:25.199Z,23.35
2018-09-16T03:46:51.248Z,23.35
2018-09-16T03:49:17.158Z,23.35
2018-09-16T03:51:43.135Z,23.35
2018-09-16T03:54:09.115Z,23.35
2018-09-16T03:56:35.098Z,23.34
2018-09-16T03:59:01.072Z,23.35
2018-09-16T04:01:27.055Z,23.35
2018-09-16T04:03:53.031Z,23.34
2018-09-16T04:06:19.013Z,23.35
2018-09-16T04:08:45.047Z,23.34
2018-09-16T04:11:11.025Z,23.34
2018-09-16T04:13:37.005Z,23.34
2018-09-16T04:16:02.992Z,23.33
2018-09-16T04:18:28.975Z,23.34
2018-09-16T04:20:54.997Z,23.34
2018-09-16T04:23:20.932Z,23.34
2018-09-16T04:25:46.911Z,23.34
2018-09-16T04:28:12.905Z,23.35
2018-09-16T04:30:38.890Z,23.36
2018-09-16T04:33:04.868Z,23.37
2018-09-16T04:35:30.847Z,23.37
2018-09-16T04:37:56.830Z,23.38
2018-09-16T04:40:22.808Z,23.38
2018-09-16T04:42:48.798Z,23.38
2018-09-16T04:45:14.775Z,23.38
2018-09-16T04:47:40.756Z,23.39
2018-09-16T04:50:06.748Z,23.39
2018-09-16T04:52:32.717Z,23.39
2018-09-16T04:54:58.702Z,23.39
2018-09-16T04:57:24.697Z,23.40
2018-09-16T04:59:50.672Z,23.40
2018-09-16T05:02:16.653Z,23.41
2018-09-16T05:04:42.653Z,23.41
2018-09-16T05:07:08.626Z,23.42
2018-09-16T05:09:34.611Z,23.45
2018-09-16T05:12:00.599Z,23.48
2018-09-16T05:14:26.629Z,23.49
2018-09-16T05:16:52.610Z,23.52
2018-09-16T05:19:18.602Z,23.52
2018-09-16T05:21:44.570Z,23.53
2018-09-16T05:24:10.558Z,23.54
2018-09-16T05:26:36.536Z,23.54
2018-09-16T05:29:02.515Z,23.57
2018-09-16T05:31:28.555Z,23.58
2018-09-16T05:33:54.573Z,23.57
2018-09-16T05:36:20.556Z,23.57
2018-09-16T05:38:46.568Z,23.57
2018-09-16T05:41:12.517Z,23.57
2018-09-16T05:43:38.494Z,23.55
2018-09-16T05:46:04.525Z,23.52
2018-09-16T05:48:30.520Z,23.52
2018-09-16T05:50:56.504Z,23.52
2018-09-16T05:53:22.567Z,23.51
2018-09-16T05:55:48.460Z,23.50
2018-09-16T05:58:14.443Z,23.51
2018-09-16T06:00:40.469Z,23.52
2018-09-16T06:03:06.442Z,23.52
2018-09-16T06:05:33.692Z,23.52
2018-09-16T06:07:59.659Z,23.53
2018-09-16T06:10:25.666Z,23.53
2018-09-16T06:12:51.650Z,23.53
2018-09-16T06:15:17.632Z,23.52
2018-09-16T06:17:43.636Z,23.55
2018-09-16T06:20:09.811Z,23.58
2018-09-16T06:22:35.831Z,23.59
2018-09-16T06:25:01.774Z,23.61
2018-09-16T06:27:27.750Z,23.62
2018-09-16T06:29:53.738Z,23.63
2018-09-16T06:32:24.408Z,23.62
2018-09-16T06:34:50.585Z,23.62
2018-09-16T06:37:16.561Z,23.66
2018-09-16T06:39:46.433Z,23.69
2018-09-16T06:42:12.414Z,23.72
2018-09-16T06:44:38.398Z,23.72
2018-09-16T06:47:04.625Z,23.74
2018-09-16T06:49:30.632Z,23.75
2018-09-16T06:51:56.611Z,23.76
2018-09-16T06:54:22.618Z,23.77
2018-09-16T06:56:48.616Z,23.78
2018-09-16T06:59:14.594Z,23.79
2018-09-16T07:01:40.573Z,23.81
2018-09-16T07:04:06.562Z,23.80
2018-09-16T07:06:33.240Z,23.79
2018-09-16T07:08:59.209Z,23.77
2018-09-16T07:11:25.814Z,23.75
2018-09-16T07:13:51.879Z,23.73
2018-09-16T07:16:21.621Z,23.72
2018-09-16T07:18:55.341Z,23.71
2018-09-16T07:21:21.672Z,23.70
2018-09-16T07:23:47.664Z,23.69
2018-09-16T07:26:13.705Z,23.68
2018-09-16T07:28:43.819Z,23.68
2018-09-16T07:31:09.801Z,23.66
2018-09-16T07:33:35.843Z,23.65
2018-09-16T07:36:02.470Z,23.64
2018-09-16T07:38:28.581Z,23.65
2018-09-16T07:40:54.729Z,23.64
2018-09-16T07:43:21.048Z,23.65
2018-09-16T07:45:47.062Z,23.65
2018-09-16T07:48:13.053Z,23.65
2018-09-16T07:50:39.039Z,23.64
2018-09-16T07:53:05.079Z,23.64
2018-09-16T07:55:30.996Z,23.65
2018-09-16T07:57:57.015Z,23.65
2018-09-16T08:00:22.965Z,23.64
2018-09-16T08:02:48.956Z,23.65
2018-09-16T08:05:14.959Z,23.64
2018-09-16T08:07:40.942Z,23.63
2018-09-16T08:10:06.932Z,23.63
2018-09-16T08:12:32.911Z,23.63
2018-09-16T08:15:03.872Z,23.63
2018-09-16T08:17:33.174Z,23.63
2018-09-16T08:19:59.934Z,23.63
2018-09-16T08:22:27.504Z,23.63
2018-09-16T08:24:53.479Z,23.63
2018-09-16T08:27:19.502Z,23.63
2018-09-16T08:29:48.817Z,23.63
2018-09-16T08:32:14.844Z,23.63
2018-09-16T08:34:41.194Z,23.63
2018-09-16T08:37:07.171Z,23.63
2018-09-16T08:39:33.344Z,23.63
2018-09-16T08:42:00.233Z,23.63
2018-09-16T08:44:26.171Z,23.62
2018-09-16T08:46:53.497Z,23.63
2018-09-16T08:49:19.686Z,23.64
2018-09-16T08:51:45.667Z,23.67
2018-09-16T08:54:11.692Z,23.69
2018-09-16T08:56:37.891Z,23.69
2018-09-16T08:59:03.863Z,23.67
2018-09-16T09:01:29.845Z,23.66
2018-09-16T09:04:00.026Z,23.67
2018-09-16T09:06:26.239Z,23.69
2018-09-16T09:08:52.228Z,23.70
2018-09-16T09:11:18.891Z,23.68
2018-09-16T09:13:46.655Z,23.65
2018-09-16T09:16:12.599Z,23.63
2018-09-16T09:18:39.188Z,23.63
2018-09-16T09:21:05.150Z,23.62
2018-09-16T09:23:31.151Z,23.61
2018-09-16T09:25:57.169Z,23.62
2018-09-16T09:28:23.161Z,23.62
2018-09-16T09:30:49.142Z,23.63
2018-09-16T09:33:15.126Z,23.64
2018-09-16T09:35:41.153Z,23.66
2018-09-16T09:38:07.168Z,23.69
2018-09-16T09:40:33.080Z,23.70
2018-09-16T09:42:59.068Z,23.70
2018-09-16T09:45:25.053Z,23.71
2018-09-16T09:47:51.046Z,23.72
2018-09-16T09:50:17.054Z,23.73
2018-09-16T09:52:43.006Z,23.74
2018-09-16T09:55:08.991Z,23.76
2018-09-16T09:57:34.990Z,23.79
2018-09-16T10:00:01.013Z,23.79
2018-09-16T10:02:26.991Z,23.79
2018-09-16T10:04:53.328Z,23.78
2018-09-16T10:07:19.495Z,23.78
2018-09-16T10:09:45.489Z,23.77
2018-09-16T10:12:11.637Z,23.77
2018-09-16T10:14:38.344Z,23.78
2018-09-16T10:17:04.340Z,23.77
2018-09-16T10:19:31.007Z,23.76
2018-09-16T10:21:57.000Z,23.75
2018-09-16T10:24:23.123Z,23.75
2018-09-16T10:26:49.092Z,23.75
2018-09-16T10:29:15.082Z,23.74
2018-09-16T10:31:41.072Z,23.74
2018-09-16T10:34:07.053Z,23.75
2018-09-16T10:36:33.039Z,23.75
2018-09-16T10:38:59.207Z,23.75
2018-09-16T10:41:25.049Z,23.76
2018-09-16T10:43:51.047Z,23.76
2018-09-16T10:46:17.018Z,23.76
2018-09-16T10:48:43.001Z,23.76
2018-09-16T10:51:09.004Z,23.76
2018-09-16T10:53:34.984Z,23.75
2018-09-16T10:56:00.972Z,23.76
2018-09-16T10:58:26.951Z,23.77
2018-09-16T11:00:52.928Z,23.81
2018-09-16T11:03:18.909Z,23.83
2018-09-16T11:05:44.924Z,23.84
2018-09-16T11:08:10.877Z,23.84
2018-09-16T11:10:36.901Z,23.86
2018-09-16T11:13:02.879Z,23.85
2018-09-16T11:15:28.868Z,23.87
2018-09-16T11:17:54.921Z,23.87
2018-09-16T11:20:20.905Z,23.87
2018-09-16T11:22:46.940Z,23.86
2018-09-16T11:25:12.959Z,23.86
2018-09-16T11:27:38.942Z,23.86
2018-09-16T11:30:04.940Z,23.86
2018-09-16T11:32:30.899Z,23.86
2018-09-16T11:34:56.964Z,23.87
2018-09-16T11:37:23.000Z,23.86
2018-09-16T11:39:48.973Z,23.86
2018-09-16T11:42:14.969Z,23.84
2018-09-16T11:44:40.943Z,23.85
2018-09-16T11:47:06.920Z,23.84
2018-09-16T11:49:33.014Z,23.85
2018-09-16T11:51:58.993Z,23.85
2018-09-16T11:54:24.966Z,23.86
2018-09-16T11:56:50.958Z,23.87
2018-09-16T11:59:16.942Z,23.88
2018-09-16T12:01:42.928Z,23.88
2018-09-16T12:04:08.912Z,23.89
2018-09-16T12:06:35.010Z,23.89
2018-09-16T12:09:00.987Z,23.86
2018-09-16T12:11:27.140Z,23.85
2018-09-16T12:13:53.125Z,23.85
2018-09-16T12:16:19.111Z,23.84
2018-09-16T12:18:45.104Z,23.86
2018-09-16T12:21:11.104Z,23.92
2018-09-16T12:23:37.101Z,23.93
2018-09-16T12:26:03.084Z,23.92
2018-09-16T12:28:29.056Z,23.92
2018-09-16T12:30:55.090Z,23.93
2018-09-16T12:33:21.047Z,23.93
2018-09-16T12:35:47.033Z,23.94
2018-09-16T12:38:13.020Z,23.96
2018-09-16T12:40:39.018Z,23.97
2018-09-16T12:43:04.992Z,23.97
2018-09-16T12:45:31.353Z,23.98
2018-09-16T12:47:57.352Z,23.97
2018-09-16T12:50:23.340Z,23.98
2018-09-16T12:52:49.323Z,23.98
2018-09-16T12:55:15.302Z,23.98
2018-09-16T12:57:41.284Z,23.99
2018-09-16T13:00:07.276Z,23.99
2018-09-16T13:02:33.265Z,23.99
2018-09-16T13:04:59.253Z,23.99
2018-09-16T13:07:25.234Z,24.00
2018-09-16T13:09:51.214Z,24.00
2018-09-16T13:12:17.196Z,23.99
2018-09-16T13:14:43.195Z,23.99
2018-09-16T13:17:09.226Z,23.99
2018-09-16T13:19:35.159Z,23.97
2018-09-16T13:22:01.142Z,23.97
2018-09-16T13:24:27.145Z,23.97
2018-09-16T13:26:53.128Z,23.98
2018-09-16T13:29:19.108Z,23.97
2018-09-16T13:31:45.098Z,23.96
2018-09-16T13:34:11.069Z,23.96
2018-09-16T13:36:37.098Z,23.96
2018-09-16T13:39:03.074Z,23.96
2018-09-16T13:41:29.069Z,23.96
2018-09-16T13:43:55.075Z,23.95
2018-09-16T13:46:21.058Z,23.95
2018-09-16T13:48:47.042Z,23.95
2018-09-16T13:51:13.036Z,23.95
2018-09-16T13:53:39.039Z,23.94
2018-09-16T13:56:05.006Z,23.94
2018-09-16T13:58:30.987Z,23.94
2018-09-16T14:00:56.968Z,23.95
2018-09-16T14:03:22.965Z,23.94
2018-09-16T14:05:48.956Z,23.93
2018-09-16T14:08:14.947Z,23.90
2018-09-16T14:10:40.985Z,23.88
2018-09-16T14:13:06.968Z,23.86
2018-09-16T14:15:32.971Z,23.85
2018-09-16T14:17:58.956Z,23.84
2018-09-16T14:20:24.949Z,23.83
2018-09-16T14:22:50.951Z,23.82
2018-09-16T14:25:16.933Z,23.81
2018-09-16T14:27:42.964Z,23.80
2018-09-16T14:30:08.934Z,23.80
2018-09-16T14:32:34.926Z,23.79
2018-09-16T14:35:00.909Z,23.79
2018-09-16T14:37:26.900Z,23.79
2018-09-16T14:39:52.893Z,23.78
2018-09-16T14:42:18.869Z,23.78
2018-09-16T14:44:44.849Z,23.77
2018-09-16T14:47:10.823Z,23.76
2018-09-16T14:49:36.810Z,23.76
2018-09-16T14:52:02.780Z,23.76
2018-09-16T14:54:28.777Z,23.78
2018-09-16T14:56:54.835Z,23.80
2018-09-16T14:59:20.740Z,23.81
2018-09-16T15:01:46.724Z,23.82
2018-09-16T15:04:12.707Z,23.82
2018-09-16T15:06:38.693Z,23.81
2018-09-16T15:09:04.691Z,23.82
2018-09-16T15:11:30.656Z,23.83
2018-09-16T15:13:56.677Z,23.81
2018-09-16T15:16:22.683Z,23.83
2018-09-16T15:18:48.678Z,23.84
2018-09-16T15:21:14.675Z,23.86
2018-09-16T15:23:40.668Z,23.85
2018-09-16T15:26:06.649Z,23.84
2018-09-16T15:28:32.638Z,23.86
2018-09-16T15:30:58.630Z,23.86
2018-09-16T15:33:24.621Z,23.86
2018-09-16T15:35:50.601Z,23.87
2018-09-16T15:38:16.678Z,23.88
2018-09-16T15:40:42.651Z,23.89
2018-09-16T15:43:08.640Z,23.90
2018-09-16T15:45:34.627Z,23.92
2018-09-16T15:48:00.642Z,23.93
2018-09-16T15:50:26.620Z,23.94
2018-09-16T15:52:52.605Z,23.98
2018-09-16T15:55:18.625Z,23.98
2018-09-16T15:57:44.568Z,23.98
2018-09-16T16:00:10.583Z,24.00
2018-09-16T16:02:36.547Z,24.02
2018-09-16T16:05:02.534Z,24.03
2018-09-16T16:07:28.535Z,24.05
2018-09-16T16:09:54.504Z,24.06
2018-09-16T16:12:20.518Z,24.09
2018-09-16T16:14:46.486Z,24.09
2018-09-16T16:17:12.471Z,24.12
2018-09-16T16:19:38.515Z,24.12
2018-09-16T16:22:04.522Z,24.12
2018-09-16T16:24:30.503Z,24.12
2018-09-16T16:26:56.493Z,24.11
2018-09-16T16:29:22.479Z,24.12
2018-09-16T16:31:48.489Z,24.10
2018-09-16T16:34:14.479Z,24.10
2018-09-16T16:36:40.426Z,24.09
2018-09-16T16:39:06.403Z,24.10
2018-09-16T16:41:32.392Z,24.10
2018-09-16T16:43:58.378Z,24.09
2018-09-16T16:46:24.364Z,24.09
2018-09-16T16:48:50.386Z,24.09
2018-09-16T16:51:16.362Z,24.08
2018-09-16T16:53:42.348Z,24.08
2018-09-16T16:56:08.575Z,24.11
2018-09-16T16:58:34.561Z,24.10
2018-09-16T17:01:00.657Z,24.11
2018-09-16T17:03:26.521Z,24.10
2018-09-16T17:05:52.539Z,24.10
2018-09-16T17:08:18.517Z,24.10
2018-09-16T17:10:44.499Z,24.09
2018-09-16T17:13:10.486Z,24.09
2018-09-16T17:15:36.472Z,24.11
2018-09-16T17:18:02.452Z,24.12
2018-09-16T17:20:28.432Z,24.11
2018-09-16T17:22:54.458Z,24.10
2018-09-16T17:25:20.410Z,24.08
2018-09-16T17:27:46.391Z,24.08
2018-09-16T17:30:12.368Z,24.08
2018-09-16T17:32:38.348Z,24.08
2018-09-16T17:35:04.638Z,24.08
2018-09-16T17:37:30.591Z,24.08
2018-09-16T17:39:56.634Z,24.07
2018-09-16T17:42:22.618Z,24.06
2018-09-16T17:44:48.590Z,24.04
2018-09-16T17:47:14.575Z,24.02
2018-09-16T17:49:40.553Z,24.02
2018-09-16T17:52:06.538Z,24.02
2018-09-16T17:54:32.528Z,24.02
2018-09-16T17:56:58.514Z,24.06
2018-09-16T17:59:24.531Z,24.08
2018-09-16T18:01:50.511Z,24.09
2018-09-16T18:04:16.490Z,24.09
2018-09-16T18:06:42.487Z,24.08
2018-09-16T18:09:08.462Z,24.07
2018-09-16T18:11:34.465Z,24.06
2018-09-16T18:14:00.472Z,24.06
2018-09-16T18:16:26.448Z,24.04
2018-09-16T18:18:52.445Z,24.04
2018-09-16T18:21:18.415Z,24.04
2018-09-16T18:23:44.411Z,24.03
2018-09-16T18:26:10.425Z,24.02
2018-09-16T18:28:36.378Z,24.01
2018-09-16T18:31:02.353Z,24.00
2018-09-16T18:33:28.724Z,24.02
2018-09-16T18:35:54.686Z,24.05
2018-09-16T18:38:20.658Z,24.07
2018-09-16T18:40:46.639Z,24.05
2018-09-16T18:43:12.633Z,24.09
2018-09-16T18:45:38.602Z,24.08
2018-09-16T18:48:04.585Z,24.09
2018-09-16T18:50:30.627Z,24.09
2018-09-16T18:52:56.578Z,24.08
2018-09-16T18:55:22.563Z,24.05
2018-09-16T18:57:49.909Z,24.03
2018-09-16T19:00:14.534Z,24.01
2018-09-16T19:02:40.515Z,23.99
2018-09-16T19:05:06.521Z,24.00
2018-09-16T19:07:32.852Z,24.00
2018-09-16T19:09:58.811Z,24.00
2018-09-16T19:12:24.842Z,24.00
2018-09-16T19:14:50.830Z,24.00
2018-09-16T19:17:16.811Z,23.99
2018-09-16T19:19:42.801Z,24.00
2018-09-16T19:22:08.812Z,24.00
2018-09-16T19:24:34.804Z,24.00
2018-09-16T19:27:01.777Z,23.99
2018-09-16T19:29:26.773Z,24.00
2018-09-16T19:31:52.831Z,23.99
2018-09-16T19:34:18.817Z,23.99
2018-09-16T19:36:44.801Z,23.99
2018-09-16T19:39:10.795Z,23.99
2018-09-16T19:41:36.790Z,23.99
2018-09-16T19:44:02.776Z,24.00
2018-09-16T19:46:28.780Z,23.99
2018-09-16T19:48:54.843Z,23.99
2018-09-16T19:51:21.305Z,23.99
2018-09-16T19:53:47.348Z,23.99
2018-09-16T19:56:13.510Z,23.99
2018-09-16T19:58:39.497Z,23.99
2018-09-16T20:01:05.526Z,23.99
2018-09-16T20:03:31.511Z,23.98
2018-09-16T20:05:57.490Z,23.98
2018-09-16T20:08:23.490Z,23.98
2018-09-16T20:10:49.501Z,23.99
2018-09-16T20:13:15.504Z,23.99
2018-09-16T20:15:41.503Z,23.99
2018-09-16T20:18:07.558Z,23.99
2018-09-16T20:20:33.469Z,23.99
2018-09-16T20:22:59.462Z,23.99
2018-09-16T20:25:25.435Z,23.99
2018-09-16T20:27:51.420Z,23.99
2018-09-16T20:30:17.418Z,23.98
2018-09-16T20:32:43.392Z,23.98
2018-09-16T20:35:09.377Z,23.98
2018-09-16T20:37:35.354Z,23.99
2018-09-16T20:40:01.341Z,23.98
2018-09-16T20:42:27.324Z,23.98
2018-09-16T20:44:53.328Z,23.99
2018-09-16T20:47:19.337Z,23.98
2018-09-16T20:49:45.294Z,23.99
2018-09-16T20:52:11.274Z,23.99
2018-09-16T20:54:37.272Z,23.98
2018-09-16T20:57:03.258Z,23.98
2018-09-16T20:59:29.232Z,23.98
2018-09-16T21:01:55.226Z,23.98
2018-09-16T21:04:21.207Z,23.98
2018-09-16T21:06:47.187Z,23.97
2018-09-16T21:09:13.198Z,23.97
2018-09-16T21:11:39.149Z,23.96
2018-09-16T21:14:05.137Z,23.97
2018-09-16T21:16:31.126Z,23.96
2018-09-16T21:18:57.102Z,23.96
2018-09-16T21:21:23.117Z,23.96
2018-09-16T21:23:49.088Z,23.95
2018-09-16T21:26:15.159Z,23.96
2018-09-16T21:28:41.087Z,23.95
2018-09-16T21:31:07.061Z,24.08
2018-09-16T21:33:33.073Z,24.20
2018-09-16T21:35:59.074Z,24.24
2018-09-16T21:38:25.077Z,24.25
2018-09-16T21:40:51.052Z,24.27
2018-09-16T21:43:17.025Z,24.30
2018-09-16T21:45:43.016Z,24.29
2018-09-16T21:48:08.984Z,24.30
2018-09-16T21:50:34.970Z,24.32
2018-09-16T21:53:01.009Z,24.32
2018-09-16T21:55:27.004Z,24.31
2018-09-16T21:57:53.035Z,24.29
2018-09-16T22:00:18.974Z,24.27
2018-09-16T22:02:44.964Z,24.26
2018-09-16T22:05:10.947Z,24.24
2018-09-16T22:07:36.923Z,24.23
2018-09-16T22:10:02.909Z,24.22
2018-09-16T22:12:28.898Z,24.22
2018-09-16T22:14:54.885Z,24.21
2018-09-16T22:17:20.869Z,24.20
2018-09-16T22:19:46.853Z,24.19
2018-09-16T22:22:12.845Z,24.18
2018-09-16T22:24:38.823Z,24.17
2018-09-16T22:27:04.809Z,24.18
2018-09-16T22:29:30.796Z,24.16
2018-09-16T22:31:56.769Z,24.15
2018-09-16T22:34:22.765Z,24.14
2018-09-16T22:36:48.748Z,24.13
2018-09-16T22:39:14.741Z,24.13
2018-09-16T22:41:40.760Z,24.12
2018-09-16T22:44:06.736Z,24.11
2018-09-16T22:46:32.713Z,24.10
2018-09-16T22:48:58.708Z,24.10
2018-09-16T22:51:24.683Z,24.09
2018-09-16T22:53:50.659Z,24.09
2018-09-16T22:56:16.645Z,24.08
2018-09-16T22:58:42.616Z,24.09
2018-09-16T23:01:08.595Z,24.08
2018-09-16T23:03:34.578Z,24.09
2018-09-16T23:06:00.563Z,24.08
2018-09-16T23:08:26.553Z,24.08
2018-09-16T23:10:52.545Z,24.08
2018-09-16T23:13:18.525Z,24.07
2018-09-16T23:15:44.501Z,24.07
2018-09-16T23:18:10.477Z,24.06
2018-09-16T23:20:36.472Z,24.05
2018-09-16T23:23:02.442Z,24.05
2018-09-16T23:25:28.423Z,24.04
2018-09-16T23:27:54.417Z,24.03
2018-09-16T23:30:20.402Z,24.02
2018-09-16T23:32:46.391Z,24.02
2018-09-16T23:35:12.369Z,24.02
2018-09-16T23:37:38.347Z,24.01
2018-09-16T23:40:04.339Z,24.01
2018-09-16T23:42:30.323Z,24.00
2018-09-16T23:44:56.297Z,24.00
2018-09-16T23:47:22.284Z,24.00
2018-09-16T23:49:48.268Z,23.99
2018-09-16T23:52:14.250Z,24.00
2018-09-16T23:54:40.231Z,23.99
2018-09-16T23:57:06.213Z,23.99
2018-09-16T23:59:32.188Z,23.98
